sensor_id;sensor_type;location;lat;lon;timestamp;temperature;humidity
23579;DHT22;11967;50.852;4.400;2022-07-06T00:01:48;21.00;99.90
23579;DHT22;11967;50.852;4.400;2022-07-06T00:04:16;21.00;99.90
23579;DHT22;11967;50.852;4.400;2022-07-06T00:06:42;21.00;99.90
23579;DHT22;11967;50.852;4.400;2022-07-06T00:09:07;21.00;99.90
23579;DHT22;11967;50.852;4.400;2022-07-06T00:11:33;21.00;99.90
23579;DHT22;11967;50.852;4.400;2022-07-06T00:13:59;21.00;99.90
23579;DHT22;11967;50.852;4.400;2022-07-06T00:16:25;21.00;99.90
23579;DHT22;11967;50.852;4.400;2022-07-06T00:18:51;21.00;99.90
23579;DHT22;11967;50.852;4.400;2022-07-06T00:21:17;20.90;99.90
23579;DHT22;11967;50.852;4.400;2022-07-06T00:23:44;21.00;99.90
23579;DHT22;11967;50.852;4.400;2022-07-06T00:26:09;21.00;99.90
23579;DHT22;11967;50.852;4.400;2022-07-06T00:28:35;21.00;99.90
23579;DHT22;11967;50.852;4.400;2022-07-06T00:31:01;21.00;99.90
23579;DHT22;11967;50.852;4.400;2022-07-06T00:33:27;21.00;99.90
23579;DHT22;11967;50.852;4.400;2022-07-06T00:35:53;21.00;99.90
23579;DHT22;11967;50.852;4.400;2022-07-06T00:38:19;20.90;99.90
23579;DHT22;11967;50.852;4.400;2022-07-06T00:40:44;20.90;99.90
23579;DHT22;11967;50.852;4.400;2022-07-06T00:43:10;20.90;99.90
23579;DHT22;11967;50.852;4.400;2022-07-06T00:45:36;20.90;99.90
23579;DHT22;11967;50.852;4.400;2022-07-06T00:48:02;21.00;99.90
23579;DHT22;11967;50.852;4.400;2022-07-06T00:50:28;21.00;99.90
23579;DHT22;11967;50.852;4.400;2022-07-06T00:53:12;20.90;99.90
23579;DHT22;11967;50.852;4.400;2022-07-06T00:55:39;20.90;99.90
23579;DHT22;11967;50.852;4.400;2022-07-06T00:58:06;20.90;99.90
23579;DHT22;11967;50.852;4.400;2022-07-06T01:00:33;20.90;99.90
23579;DHT22;11967;50.852;4.400;2022-07-06T01:02:59;20.90;99.90
23579;DHT22;11967;50.852;4.400;2022-07-06T01:05:25;20.80;99.90
23579;DHT22;11967;50.852;4.400;2022-07-06T01:07:52;20.80;99.90
23579;DHT22;11967;50.852;4.400;2022-07-06T01:10:19;20.80;99.90
23579;DHT22;11967;50.852;4.400;2022-07-06T01:12:46;20.80;99.90
23579;DHT22;11967;50.852;4.400;2022-07-06T01:15:18;20.80;99.90
23579;DHT22;11967;50.852;4.400;2022-07-06T01:17:44;20.80;99.90
23579;DHT22;11967;50.852;4.400;2022-07-06T01:20:30;20.80;99.90
23579;DHT22;11967;50.852;4.400;2022-07-06T01:23:00;20.90;99.90
23579;DHT22;11967;50.852;4.400;2022-07-06T01:25:25;20.80;99.90
23579;DHT22;11967;50.852;4.400;2022-07-06T01:27:52;20.80;99.90
23579;DHT22;11967;50.852;4.400;2022-07-06T01:30:19;20.80;99.90
23579;DHT22;11967;50.852;4.400;2022-07-06T01:32:45;20.90;99.90
23579;DHT22;11967;50.852;4.400;2022-07-06T01:35:13;20.90;99.90
23579;DHT22;11967;50.852;4.400;2022-07-06T01:37:39;20.80;99.90
23579;DHT22;11967;50.852;4.400;2022-07-06T01:40:07;20.80;99.90
23579;DHT22;11967;50.852;4.400;2022-07-06T01:42:34;20.80;99.90
23579;DHT22;11967;50.852;4.400;2022-07-06T01:45:02;20.80;99.90
23579;DHT22;11967;50.852;4.400;2022-07-06T01:47:28;20.80;99.90
23579;DHT22;11967;50.852;4.400;2022-07-06T01:49:54;20.80;99.90
23579;DHT22;11967;50.852;4.400;2022-07-06T01:52:19;20.70;99.90
23579;DHT22;11967;50.852;4.400;2022-07-06T01:54:46;20.70;99.90
23579;DHT22;11967;50.852;4.400;2022-07-06T01:57:12;20.80;99.90
23579;DHT22;11967;50.852;4.400;2022-07-06T01:59:37;20.60;99.90
23579;DHT22;11967;50.852;4.400;2022-07-06T02:02:03;20.70;99.90
23579;DHT22;11967;50.852;4.400;2022-07-06T02:04:29;20.70;99.90
23579;DHT22;11967;50.852;4.400;2022-07-06T02:06:54;20.70;99.90
23579;DHT22;11967;50.852;4.400;2022-07-06T02:09:20;20.80;99.90
23579;DHT22;11967;50.852;4.400;2022-07-06T02:11:45;20.80;99.90
23579;DHT22;11967;50.852;4.400;2022-07-06T02:14:11;20.80;99.90
23579;DHT22;11967;50.852;4.400;2022-07-06T02:16:37;20.70;99.90
23579;DHT22;11967;50.852;4.400;2022-07-06T02:19:03;20.70;99.90
23579;DHT22;11967;50.852;4.400;2022-07-06T02:21:29;20.60;99.90
23579;DHT22;11967;50.852;4.400;2022-07-06T02:23:54;20.70;99.90
23579;DHT22;11967;50.852;4.400;2022-07-06T02:26:21;20.60;99.90
23579;DHT22;11967;50.852;4.400;2022-07-06T02:28:47;20.60;99.90
23579;DHT22;11967;50.852;4.400;2022-07-06T02:31:13;20.60;99.90
23579;DHT22;11967;50.852;4.400;2022-07-06T02:33:40;20.50;99.90
23579;DHT22;11967;50.852;4.400;2022-07-06T02:36:06;20.50;99.90
23579;DHT22;11967;50.852;4.400;2022-07-06T02:38:32;20.60;99.90
23579;DHT22;11967;50.852;4.400;2022-07-06T02:40:57;20.50;99.90
23579;DHT22;11967;50.852;4.400;2022-07-06T02:43:23;20.50;99.90
23579;DHT22;11967;50.852;4.400;2022-07-06T02:45:48;20.50;99.90
23579;DHT22;11967;50.852;4.400;2022-07-06T02:48:14;20.50;99.90
23579;DHT22;11967;50.852;4.400;2022-07-06T02:50:40;20.50;99.90
23579;DHT22;11967;50.852;4.400;2022-07-06T02:53:05;20.50;99.90
23579;DHT22;11967;50.852;4.400;2022-07-06T02:55:31;20.50;99.90
23579;DHT22;11967;50.852;4.400;2022-07-06T02:57:57;20.50;99.90
23579;DHT22;11967;50.852;4.400;2022-07-06T03:00:23;20.40;99.90
23579;DHT22;11967;50.852;4.400;2022-07-06T03:02:48;20.40;99.90
23579;DHT22;11967;50.852;4.400;2022-07-06T03:05:14;20.40;99.90
23579;DHT22;11967;50.852;4.400;2022-07-06T03:07:40;20.40;99.90
23579;DHT22;11967;50.852;4.400;2022-07-06T03:10:05;20.40;99.90
23579;DHT22;11967;50.852;4.400;2022-07-06T03:12:31;20.40;99.90
23579;DHT22;11967;50.852;4.400;2022-07-06T03:14:57;20.40;99.90
23579;DHT22;11967;50.852;4.400;2022-07-06T03:17:22;20.30;99.90
23579;DHT22;11967;50.852;4.400;2022-07-06T03:19:48;20.40;99.90
23579;DHT22;11967;50.852;4.400;2022-07-06T03:22:14;20.30;99.90
23579;DHT22;11967;50.852;4.400;2022-07-06T03:24:40;20.40;99.90
23579;DHT22;11967;50.852;4.400;2022-07-06T03:27:05;20.40;99.90
23579;DHT22;11967;50.852;4.400;2022-07-06T03:29:31;20.40;99.90
23579;DHT22;11967;50.852;4.400;2022-07-06T03:31:56;20.40;99.90
23579;DHT22;11967;50.852;4.400;2022-07-06T03:34:22;20.40;99.90
23579;DHT22;11967;50.852;4.400;2022-07-06T03:36:48;20.40;99.90
23579;DHT22;11967;50.852;4.400;2022-07-06T03:39:14;20.40;99.90
23579;DHT22;11967;50.852;4.400;2022-07-06T03:41:39;20.40;99.90
23579;DHT22;11967;50.852;4.400;2022-07-06T03:44:05;20.40;99.90
23579;DHT22;11967;50.852;4.400;2022-07-06T03:46:31;20.40;99.90
23579;DHT22;11967;50.852;4.400;2022-07-06T03:48:56;20.30;99.90
23579;DHT22;11967;50.852;4.400;2022-07-06T03:51:22;20.30;99.90
23579;DHT22;11967;50.852;4.400;2022-07-06T03:53:48;20.30;99.90
23579;DHT22;11967;50.852;4.400;2022-07-06T03:56:13;20.30;99.90
23579;DHT22;11967;50.852;4.400;2022-07-06T03:58:59;20.30;99.90
23579;DHT22;11967;50.852;4.400;2022-07-06T04:01:25;20.30;99.90
23579;DHT22;11967;50.852;4.400;2022-07-06T04:03:51;20.40;99.90
23579;DHT22;11967;50.852;4.400;2022-07-06T04:06:17;20.30;99.90
23579;DHT22;11967;50.852;4.400;2022-07-06T04:08:43;20.30;99.90
23579;DHT22;11967;50.852;4.400;2022-07-06T04:11:09;20.40;99.90
23579;DHT22;11967;50.852;4.400;2022-07-06T04:13:35;20.40;99.90
23579;DHT22;11967;50.852;4.400;2022-07-06T04:16:00;20.40;99.90
23579;DHT22;11967;50.852;4.400;2022-07-06T04:18:27;20.40;99.90
23579;DHT22;11967;50.852;4.400;2022-07-06T04:20:53;20.40;99.90
23579;DHT22;11967;50.852;4.400;2022-07-06T04:23:18;20.40;99.90
23579;DHT22;11967;50.852;4.400;2022-07-06T04:25:44;20.40;99.90
23579;DHT22;11967;50.852;4.400;2022-07-06T04:28:09;20.40;99.90
23579;DHT22;11967;50.852;4.400;2022-07-06T04:30:36;20.40;99.90
23579;DHT22;11967;50.852;4.400;2022-07-06T04:33:02;20.40;99.90
23579;DHT22;11967;50.852;4.400;2022-07-06T04:35:29;20.40;99.90
23579;DHT22;11967;50.852;4.400;2022-07-06T04:37:55;20.30;99.90
23579;DHT22;11967;50.852;4.400;2022-07-06T04:40:20;20.30;99.90
23579;DHT22;11967;50.852;4.400;2022-07-06T04:42:46;20.40;99.90
23579;DHT22;11967;50.852;4.400;2022-07-06T04:45:13;20.40;99.90
23579;DHT22;11967;50.852;4.400;2022-07-06T04:47:39;20.40;99.90
23579;DHT22;11967;50.852;4.400;2022-07-06T04:50:05;20.40;99.90
23579;DHT22;11967;50.852;4.400;2022-07-06T04:52:31;20.40;99.90
23579;DHT22;11967;50.852;4.400;2022-07-06T04:54:56;20.30;99.90
23579;DHT22;11967;50.852;4.400;2022-07-06T04:57:22;20.30;99.90
23579;DHT22;11967;50.852;4.400;2022-07-06T04:59:48;20.30;99.90
23579;DHT22;11967;50.852;4.400;2022-07-06T05:02:14;20.30;99.90
23579;DHT22;11967;50.852;4.400;2022-07-06T05:04:40;20.30;99.90
23579;DHT22;11967;50.852;4.400;2022-07-06T05:07:06;20.30;99.90
23579;DHT22;11967;50.852;4.400;2022-07-06T05:09:31;20.20;99.90
23579;DHT22;11967;50.852;4.400;2022-07-06T05:11:57;20.20;99.90
23579;DHT22;11967;50.852;4.400;2022-07-06T05:14:23;20.20;99.90
23579;DHT22;11967;50.852;4.400;2022-07-06T05:16:48;20.20;99.90
23579;DHT22;11967;50.852;4.400;2022-07-06T05:19:15;20.20;99.90
23579;DHT22;11967;50.852;4.400;2022-07-06T05:21:43;20.20;99.90
23579;DHT22;11967;50.852;4.400;2022-07-06T05:24:08;20.10;99.90
23579;DHT22;11967;50.852;4.400;2022-07-06T05:26:34;20.20;99.90
23579;DHT22;11967;50.852;4.400;2022-07-06T05:29:00;20.20;99.90
23579;DHT22;11967;50.852;4.400;2022-07-06T05:31:25;20.30;99.90
23579;DHT22;11967;50.852;4.400;2022-07-06T05:33:51;20.30;99.90
23579;DHT22;11967;50.852;4.400;2022-07-06T05:36:20;20.40;99.90
23579;DHT22;11967;50.852;4.400;2022-07-06T05:38:46;20.40;99.90
23579;DHT22;11967;50.852;4.400;2022-07-06T05:41:11;20.40;99.90
23579;DHT22;11967;50.852;4.400;2022-07-06T05:43:37;20.30;99.90
23579;DHT22;11967;50.852;4.400;2022-07-06T05:46:03;20.20;99.90
23579;DHT22;11967;50.852;4.400;2022-07-06T05:48:29;20.30;99.90
23579;DHT22;11967;50.852;4.400;2022-07-06T05:51:14;20.30;99.90
23579;DHT22;11967;50.852;4.400;2022-07-06T05:53:39;20.20;99.90
23579;DHT22;11967;50.852;4.400;2022-07-06T05:56:05;20.20;99.90
23579;DHT22;11967;50.852;4.400;2022-07-06T05:58:30;20.20;99.90
23579;DHT22;11967;50.852;4.400;2022-07-06T06:00:56;20.20;99.90
23579;DHT22;11967;50.852;4.400;2022-07-06T06:03:22;20.10;99.90
23579;DHT22;11967;50.852;4.400;2022-07-06T06:05:48;20.10;99.90
23579;DHT22;11967;50.852;4.400;2022-07-06T06:08:14;20.20;99.90
23579;DHT22;11967;50.852;4.400;2022-07-06T06:10:40;20.30;99.90
23579;DHT22;11967;50.852;4.400;2022-07-06T06:13:05;20.30;99.90
23579;DHT22;11967;50.852;4.400;2022-07-06T06:15:31;20.30;99.90
23579;DHT22;11967;50.852;4.400;2022-07-06T06:17:57;20.40;99.90
23579;DHT22;11967;50.852;4.400;2022-07-06T06:20:23;20.40;99.90
23579;DHT22;11967;50.852;4.400;2022-07-06T06:22:51;20.40;99.90
23579;DHT22;11967;50.852;4.400;2022-07-06T06:25:19;20.40;99.90
23579;DHT22;11967;50.852;4.400;2022-07-06T06:27:45;20.40;99.90
23579;DHT22;11967;50.852;4.400;2022-07-06T06:30:12;20.40;99.90
23579;DHT22;11967;50.852;4.400;2022-07-06T06:32:38;20.40;99.90
23579;DHT22;11967;50.852;4.400;2022-07-06T06:35:05;20.50;99.90
23579;DHT22;11967;50.852;4.400;2022-07-06T06:37:31;20.60;99.90
23579;DHT22;11967;50.852;4.400;2022-07-06T06:39:59;20.60;99.90
23579;DHT22;11967;50.852;4.400;2022-07-06T06:42:25;20.60;99.90
23579;DHT22;11967;50.852;4.400;2022-07-06T06:44:51;20.60;99.90
23579;DHT22;11967;50.852;4.400;2022-07-06T06:47:16;20.70;99.90
23579;DHT22;11967;50.852;4.400;2022-07-06T06:49:42;20.70;99.90
23579;DHT22;11967;50.852;4.400;2022-07-06T06:52:07;20.70;99.90
23579;DHT22;11967;50.852;4.400;2022-07-06T06:54:33;20.70;99.90
23579;DHT22;11967;50.852;4.400;2022-07-06T06:56:58;20.80;99.90
23579;DHT22;11967;50.852;4.400;2022-07-06T06:59:24;20.80;99.90
23579;DHT22;11967;50.852;4.400;2022-07-06T07:01:50;20.80;99.90
23579;DHT22;11967;50.852;4.400;2022-07-06T07:04:16;20.90;99.90
23579;DHT22;11967;50.852;4.400;2022-07-06T07:06:43;20.90;99.90
23579;DHT22;11967;50.852;4.400;2022-07-06T07:09:08;20.90;99.90
23579;DHT22;11967;50.852;4.400;2022-07-06T07:11:34;20.90;99.90
23579;DHT22;11967;50.852;4.400;2022-07-06T07:14:00;20.90;99.90
23579;DHT22;11967;50.852;4.400;2022-07-06T07:16:26;21.30;99.90
23579;DHT22;11967;50.852;4.400;2022-07-06T07:18:52;21.60;99.90
23579;DHT22;11967;50.852;4.400;2022-07-06T07:21:19;21.60;99.20
23579;DHT22;11967;50.852;4.400;2022-07-06T07:23:45;21.50;99.00
23579;DHT22;11967;50.852;4.400;2022-07-06T07:26:11;21.40;99.90
23579;DHT22;11967;50.852;4.400;2022-07-06T07:28:37;21.50;99.90
23579;DHT22;11967;50.852;4.400;2022-07-06T07:31:04;21.40;99.00
23579;DHT22;11967;50.852;4.400;2022-07-06T07:33:30;21.30;99.40
23579;DHT22;11967;50.852;4.400;2022-07-06T07:35:56;21.10;99.30
23579;DHT22;11967;50.852;4.400;2022-07-06T07:38:21;20.90;99.40
23579;DHT22;11967;50.852;4.400;2022-07-06T07:40:49;20.60;99.90
23579;DHT22;11967;50.852;4.400;2022-07-06T07:43:14;20.60;99.90
23579;DHT22;11967;50.852;4.400;2022-07-06T07:45:40;20.70;99.90
23579;DHT22;11967;50.852;4.400;2022-07-06T07:48:06;20.70;99.90
23579;DHT22;11967;50.852;4.400;2022-07-06T07:50:32;20.80;99.90
23579;DHT22;11967;50.852;4.400;2022-07-06T07:52:57;21.00;99.90
23579;DHT22;11967;50.852;4.400;2022-07-06T07:55:23;21.00;99.90
23579;DHT22;11967;50.852;4.400;2022-07-06T07:57:49;20.80;99.90
23579;DHT22;11967;50.852;4.400;2022-07-06T08:00:15;20.80;99.90
23579;DHT22;11967;50.852;4.400;2022-07-06T08:02:40;20.70;99.90
23579;DHT22;11967;50.852;4.400;2022-07-06T08:05:12;20.70;99.90
23579;DHT22;11967;50.852;4.400;2022-07-06T08:07:44;20.60;99.90
23579;DHT22;11967;50.852;4.400;2022-07-06T08:10:11;20.60;99.90
23579;DHT22;11967;50.852;4.400;2022-07-06T08:12:37;20.70;99.90
23579;DHT22;11967;50.852;4.400;2022-07-06T08:15:04;20.80;99.90
23579;DHT22;11967;50.852;4.400;2022-07-06T08:17:30;20.90;99.90
23579;DHT22;11967;50.852;4.400;2022-07-06T08:19:56;21.00;99.90
23579;DHT22;11967;50.852;4.400;2022-07-06T08:22:22;21.10;99.90
23579;DHT22;11967;50.852;4.400;2022-07-06T08:24:48;21.10;99.90
23579;DHT22;11967;50.852;4.400;2022-07-06T08:27:14;21.20;99.90
23579;DHT22;11967;50.852;4.400;2022-07-06T08:29:39;21.20;99.90
23579;DHT22;11967;50.852;4.400;2022-07-06T08:32:05;21.20;99.90
23579;DHT22;11967;50.852;4.400;2022-07-06T08:34:32;21.20;99.90
23579;DHT22;11967;50.852;4.400;2022-07-06T08:36:58;21.30;99.90
23579;DHT22;11967;50.852;4.400;2022-07-06T08:39:23;21.40;99.90
23579;DHT22;11967;50.852;4.400;2022-07-06T08:41:49;21.50;99.90
23579;DHT22;11967;50.852;4.400;2022-07-06T08:44:17;21.50;99.90
23579;DHT22;11967;50.852;4.400;2022-07-06T08:46:44;21.50;99.90
23579;DHT22;11967;50.852;4.400;2022-07-06T08:49:16;21.50;99.90
23579;DHT22;11967;50.852;4.400;2022-07-06T08:51:42;21.50;99.90
23579;DHT22;11967;50.852;4.400;2022-07-06T08:54:08;21.60;99.90
23579;DHT22;11967;50.852;4.400;2022-07-06T08:56:35;21.70;99.90
23579;DHT22;11967;50.852;4.400;2022-07-06T08:59:01;21.80;99.90
23579;DHT22;11967;50.852;4.400;2022-07-06T09:01:27;21.90;99.90
23579;DHT22;11967;50.852;4.400;2022-07-06T09:03:55;21.80;99.90
23579;DHT22;11967;50.852;4.400;2022-07-06T09:06:25;21.80;99.90
23579;DHT22;11967;50.852;4.400;2022-07-06T09:08:53;22.00;99.90
23579;DHT22;11967;50.852;4.400;2022-07-06T09:11:21;22.00;99.90
23579;DHT22;11967;50.852;4.400;2022-07-06T09:13:47;22.10;99.90
23579;DHT22;11967;50.852;4.400;2022-07-06T09:16:15;22.10;99.90
23579;DHT22;11967;50.852;4.400;2022-07-06T09:18:44;22.20;99.90
23579;DHT22;11967;50.852;4.400;2022-07-06T09:21:10;22.20;99.70
23579;DHT22;11967;50.852;4.400;2022-07-06T09:23:37;22.20;99.80
23579;DHT22;11967;50.852;4.400;2022-07-06T09:26:05;22.20;99.90
23579;DHT22;11967;50.852;4.400;2022-07-06T09:28:41;22.30;99.90
23579;DHT22;11967;50.852;4.400;2022-07-06T09:31:07;22.60;99.90
23579;DHT22;11967;50.852;4.400;2022-07-06T09:33:35;22.80;99.90
23579;DHT22;11967;50.852;4.400;2022-07-06T09:36:00;23.00;99.90
23579;DHT22;11967;50.852;4.400;2022-07-06T09:38:28;23.10;99.90
23579;DHT22;11967;50.852;4.400;2022-07-06T09:40:54;23.20;99.90
23579;DHT22;11967;50.852;4.400;2022-07-06T09:43:23;23.40;99.90
23579;DHT22;11967;50.852;4.400;2022-07-06T09:45:54;23.40;99.40
23579;DHT22;11967;50.852;4.400;2022-07-06T09:48:27;23.50;99.90
23579;DHT22;11967;50.852;4.400;2022-07-06T09:51:00;23.50;99.90
23579;DHT22;11967;50.852;4.400;2022-07-06T09:53:31;23.60;99.70
23579;DHT22;11967;50.852;4.400;2022-07-06T09:55:57;23.60;99.90
23579;DHT22;11967;50.852;4.400;2022-07-06T09:58:27;23.70;99.40
23579;DHT22;11967;50.852;4.400;2022-07-06T10:00:53;23.50;98.70
23579;DHT22;11967;50.852;4.400;2022-07-06T10:03:19;23.50;99.50
23579;DHT22;11967;50.852;4.400;2022-07-06T10:05:46;23.50;99.70
23579;DHT22;11967;50.852;4.400;2022-07-06T10:08:13;23.60;99.80
23579;DHT22;11967;50.852;4.400;2022-07-06T10:10:40;23.60;99.40
23579;DHT22;11967;50.852;4.400;2022-07-06T10:13:07;23.70;99.20
23579;DHT22;11967;50.852;4.400;2022-07-06T10:15:34;23.60;98.80
23579;DHT22;11967;50.852;4.400;2022-07-06T10:18:03;23.70;99.10
23579;DHT22;11967;50.852;4.400;2022-07-06T10:20:32;23.60;98.60
23579;DHT22;11967;50.852;4.400;2022-07-06T10:23:02;23.70;99.00
23579;DHT22;11967;50.852;4.400;2022-07-06T10:25:28;23.80;99.10
23579;DHT22;11967;50.852;4.400;2022-07-06T10:27:55;23.80;98.90
23579;DHT22;11967;50.852;4.400;2022-07-06T10:30:22;23.90;99.00
23579;DHT22;11967;50.852;4.400;2022-07-06T10:32:50;24.00;98.90
23579;DHT22;11967;50.852;4.400;2022-07-06T10:35:18;24.10;98.90
23579;DHT22;11967;50.852;4.400;2022-07-06T10:37:45;24.20;98.70
23579;DHT22;11967;50.852;4.400;2022-07-06T10:40:13;24.20;98.30
23579;DHT22;11967;50.852;4.400;2022-07-06T10:42:59;24.20;98.00
23579;DHT22;11967;50.852;4.400;2022-07-06T10:50:56;24.30;98.40
23579;DHT22;11967;50.852;4.400;2022-07-06T10:53:31;24.30;98.30
23579;DHT22;11967;50.852;4.400;2022-07-06T10:55:59;24.40;98.30
23579;DHT22;11967;50.852;4.400;2022-07-06T10:58:49;24.30;97.50
23579;DHT22;11967;50.852;4.400;2022-07-06T11:01:22;24.30;97.20
23579;DHT22;11967;50.852;4.400;2022-07-06T11:06:23;24.00;96.20
23579;DHT22;11967;50.852;4.400;2022-07-06T11:14:08;24.10;96.30
23579;DHT22;11967;50.852;4.400;2022-07-06T11:16:38;24.10;96.30
23579;DHT22;11967;50.852;4.400;2022-07-06T11:19:06;24.20;97.00
23579;DHT22;11967;50.852;4.400;2022-07-06T11:24:03;24.30;96.90
23579;DHT22;11967;50.852;4.400;2022-07-06T11:26:30;24.30;97.20
23579;DHT22;11967;50.852;4.400;2022-07-06T11:28:59;24.40;97.40
23579;DHT22;11967;50.852;4.400;2022-07-06T11:31:26;24.40;97.30
23579;DHT22;11967;50.852;4.400;2022-07-06T11:33:52;24.50;97.20
23579;DHT22;11967;50.852;4.400;2022-07-06T11:36:19;24.50;97.40
23579;DHT22;11967;50.852;4.400;2022-07-06T11:38:47;24.60;97.60
23579;DHT22;11967;50.852;4.400;2022-07-06T11:41:14;24.60;97.20
23579;DHT22;11967;50.852;4.400;2022-07-06T11:43:44;24.40;95.70
23579;DHT22;11967;50.852;4.400;2022-07-06T11:46:29;24.30;96.40
23579;DHT22;11967;50.852;4.400;2022-07-06T11:49:04;24.30;96.70
23579;DHT22;11967;50.852;4.400;2022-07-06T11:51:32;24.30;96.30
23579;DHT22;11967;50.852;4.400;2022-07-06T11:54:01;24.10;94.40
23579;DHT22;11967;50.852;4.400;2022-07-06T11:56:28;23.70;95.40
23579;DHT22;11967;50.852;4.400;2022-07-06T11:58:59;23.50;95.60
23579;DHT22;11967;50.852;4.400;2022-07-06T12:01:26;23.40;95.40
23579;DHT22;11967;50.852;4.400;2022-07-06T12:03:53;23.40;96.50
23579;DHT22;11967;50.852;4.400;2022-07-06T12:06:20;23.50;96.50
23579;DHT22;11967;50.852;4.400;2022-07-06T12:08:49;23.60;96.40
23579;DHT22;11967;50.852;4.400;2022-07-06T12:11:28;23.80;97.30
23579;DHT22;11967;50.852;4.400;2022-07-06T12:14:03;23.80;95.90
23579;DHT22;11967;50.852;4.400;2022-07-06T12:16:37;23.60;95.90
23579;DHT22;11967;50.852;4.400;2022-07-06T12:19:04;23.70;96.30
23579;DHT22;11967;50.852;4.400;2022-07-06T12:21:30;23.70;95.20
23579;DHT22;11967;50.852;4.400;2022-07-06T12:23:57;23.70;95.80
23579;DHT22;11967;50.852;4.400;2022-07-06T12:26:24;23.70;96.00
23579;DHT22;11967;50.852;4.400;2022-07-06T12:29:05;23.90;95.80
23579;DHT22;11967;50.852;4.400;2022-07-06T12:31:55;24.10;96.00
23579;DHT22;11967;50.852;4.400;2022-07-06T12:34:27;24.20;95.90
23579;DHT22;11967;50.852;4.400;2022-07-06T12:36:57;24.00;94.60
23579;DHT22;11967;50.852;4.400;2022-07-06T12:39:25;24.00;95.70
23579;DHT22;11967;50.852;4.400;2022-07-06T12:44:23;23.80;95.40
23579;DHT22;11967;50.852;4.400;2022-07-06T12:47:06;23.80;95.60
23579;DHT22;11967;50.852;4.400;2022-07-06T12:49:34;23.90;95.80
23579;DHT22;11967;50.852;4.400;2022-07-06T12:52:01;24.00;95.70
23579;DHT22;11967;50.852;4.400;2022-07-06T12:54:29;24.00;95.40
23579;DHT22;11967;50.852;4.400;2022-07-06T12:56:57;24.00;95.70
23579;DHT22;11967;50.852;4.400;2022-07-06T12:59:24;24.00;95.50
23579;DHT22;11967;50.852;4.400;2022-07-06T13:01:52;24.00;95.80
23579;DHT22;11967;50.852;4.400;2022-07-06T13:04:21;24.10;95.70
23579;DHT22;11967;50.852;4.400;2022-07-06T13:06:47;24.00;95.90
23579;DHT22;11967;50.852;4.400;2022-07-06T13:09:13;23.80;96.60
23579;DHT22;11967;50.852;4.400;2022-07-06T13:11:40;23.90;96.60
23579;DHT22;11967;50.852;4.400;2022-07-06T13:14:07;24.00;96.00
23579;DHT22;11967;50.852;4.400;2022-07-06T13:16:35;24.00;95.70
23579;DHT22;11967;50.852;4.400;2022-07-06T13:19:01;23.90;95.40
23579;DHT22;11967;50.852;4.400;2022-07-06T13:21:27;23.90;96.10
23579;DHT22;11967;50.852;4.400;2022-07-06T13:23:53;24.00;96.80
23579;DHT22;11967;50.852;4.400;2022-07-06T13:26:18;23.80;96.00
23579;DHT22;11967;50.852;4.400;2022-07-06T13:28:44;23.80;97.20
23579;DHT22;11967;50.852;4.400;2022-07-06T13:31:10;23.80;98.40
23579;DHT22;11967;50.852;4.400;2022-07-06T13:33:35;24.00;98.30
23579;DHT22;11967;50.852;4.400;2022-07-06T13:36:01;24.20;97.10
23579;DHT22;11967;50.852;4.400;2022-07-06T13:38:27;24.10;97.10
23579;DHT22;11967;50.852;4.400;2022-07-06T13:40:53;24.00;96.40
23579;DHT22;11967;50.852;4.400;2022-07-06T13:43:19;23.90;96.70
23579;DHT22;11967;50.852;4.400;2022-07-06T13:45:47;24.00;96.50
23579;DHT22;11967;50.852;4.400;2022-07-06T13:48:13;24.10;96.40
23579;DHT22;11967;50.852;4.400;2022-07-06T13:50:39;24.20;96.10
23579;DHT22;11967;50.852;4.400;2022-07-06T13:53:05;24.30;96.60
23579;DHT22;11967;50.852;4.400;2022-07-06T13:55:31;24.40;96.70
23579;DHT22;11967;50.852;4.400;2022-07-06T13:57:57;24.30;95.80
23579;DHT22;11967;50.852;4.400;2022-07-06T14:00:23;24.30;96.00
23579;DHT22;11967;50.852;4.400;2022-07-06T14:02:49;24.40;96.30
23579;DHT22;11967;50.852;4.400;2022-07-06T14:05:15;24.40;96.10
23579;DHT22;11967;50.852;4.400;2022-07-06T14:07:41;24.40;95.80
23579;DHT22;11967;50.852;4.400;2022-07-06T14:10:07;24.20;95.40
23579;DHT22;11967;50.852;4.400;2022-07-06T14:12:33;24.10;95.00
23579;DHT22;11967;50.852;4.400;2022-07-06T14:14:58;24.00;95.90
23579;DHT22;11967;50.852;4.400;2022-07-06T14:17:25;24.10;95.70
23579;DHT22;11967;50.852;4.400;2022-07-06T14:19:51;24.10;95.60
23579;DHT22;11967;50.852;4.400;2022-07-06T14:22:17;24.20;95.70
23579;DHT22;11967;50.852;4.400;2022-07-06T14:24:44;24.30;95.70
23579;DHT22;11967;50.852;4.400;2022-07-06T14:27:10;24.30;95.90
23579;DHT22;11967;50.852;4.400;2022-07-06T14:29:36;24.30;95.80
23579;DHT22;11967;50.852;4.400;2022-07-06T14:32:02;24.40;95.60
23579;DHT22;11967;50.852;4.400;2022-07-06T14:34:28;24.40;95.90
23579;DHT22;11967;50.852;4.400;2022-07-06T14:36:54;24.30;95.80
23579;DHT22;11967;50.852;4.400;2022-07-06T14:39:19;24.30;95.90
23579;DHT22;11967;50.852;4.400;2022-07-06T14:41:45;24.40;95.80
23579;DHT22;11967;50.852;4.400;2022-07-06T14:44:10;24.40;95.30
23579;DHT22;11967;50.852;4.400;2022-07-06T14:46:36;24.50;95.60
23579;DHT22;11967;50.852;4.400;2022-07-06T14:49:02;24.60;96.00
23579;DHT22;11967;50.852;4.400;2022-07-06T14:51:27;24.60;95.50
23579;DHT22;11967;50.852;4.400;2022-07-06T14:53:53;24.60;95.20
23579;DHT22;11967;50.852;4.400;2022-07-06T14:56:19;24.40;95.40
23579;DHT22;11967;50.852;4.400;2022-07-06T14:58:44;24.40;95.70
23579;DHT22;11967;50.852;4.400;2022-07-06T15:01:11;24.50;95.80
23579;DHT22;11967;50.852;4.400;2022-07-06T15:03:36;24.60;95.80
23579;DHT22;11967;50.852;4.400;2022-07-06T15:06:02;24.60;95.60
23579;DHT22;11967;50.852;4.400;2022-07-06T15:08:28;24.60;95.40
23579;DHT22;11967;50.852;4.400;2022-07-06T15:10:54;24.60;95.40
23579;DHT22;11967;50.852;4.400;2022-07-06T15:13:20;24.40;95.30
23579;DHT22;11967;50.852;4.400;2022-07-06T15:15:46;24.50;95.70
23579;DHT22;11967;50.852;4.400;2022-07-06T15:18:12;24.50;95.50
23579;DHT22;11967;50.852;4.400;2022-07-06T15:20:38;24.60;95.50
23579;DHT22;11967;50.852;4.400;2022-07-06T15:23:03;24.50;95.30
23579;DHT22;11967;50.852;4.400;2022-07-06T15:25:29;24.60;95.50
23579;DHT22;11967;50.852;4.400;2022-07-06T15:27:56;24.50;95.50
23579;DHT22;11967;50.852;4.400;2022-07-06T15:30:21;24.40;95.50
23579;DHT22;11967;50.852;4.400;2022-07-06T15:32:48;24.50;95.70
23579;DHT22;11967;50.852;4.400;2022-07-06T15:35:15;24.60;95.80
23579;DHT22;11967;50.852;4.400;2022-07-06T15:37:41;24.60;95.80
23579;DHT22;11967;50.852;4.400;2022-07-06T15:40:07;24.70;95.50
23579;DHT22;11967;50.852;4.400;2022-07-06T15:42:39;24.60;95.50
23579;DHT22;11967;50.852;4.400;2022-07-06T15:45:06;24.50;95.70
23579;DHT22;11967;50.852;4.400;2022-07-06T15:47:32;24.60;95.60